Time;durP1;ratioP1;P1;durP2;ratioP2;P2;SDS_P1;SDS_P2;PMS_P1;PMS_P2;Temp;Humidity;BMP_temperature;BMP_pressure;BME280_temperature;BME280_humidity;BME280_pressure;Samples;Min_cycle;Max_cycle;Signal;HPM_P1;HPM_P2
2022/05/06 00:01:15;;;;;;;9.63;5.72;;;;;;;16.54;56.42;100222.41;7680541;32;40738;-72
2022/05/06 00:05:31;;;;;;;6.90;4.85;;;;;;;16.23;59.16;100222.91;7684233;32;38093;-73
2022/05/06 00:09:47;;;;;;;9.00;4.85;;;;;;;16.37;58.16;100211.94;7677754;32;38052;-73
2022/05/06 00:14:04;;;;;;;7.97;4.97;;;;;;;16.35;58.21;100208.69;7685838;32;39481;-73
2022/05/06 00:18:20;;;;;;;11.05;5.80;;;;;;;16.12;58.78;100204.91;7685012;32;40284;-73
2022/05/06 00:22:36;;;;;;;9.32;5.75;;;;;;;16.13;57.57;100204.62;7684012;32;38795;-73
2022/05/06 00:26:52;;;;;;;9.43;6.05;;;;;;;16.22;58.32;100207.50;7677802;32;37070;-73
2022/05/06 00:31:09;;;;;;;9.30;6.07;;;;;;;16.21;59.67;100210.56;7685589;32;39338;-72
2022/05/06 00:35:25;;;;;;;10.15;6.20;;;;;;;16.32;59.31;100214.78;7684876;32;40039;-73
2022/05/06 00:39:42;;;;;;;13.40;6.03;;;;;;;16.11;60.05;100219.81;7683598;32;38116;-73
2022/05/06 00:43:58;;;;;;;9.18;6.43;;;;;;;16.30;59.20;100217.03;7677178;32;37291;-73
2022/05/06 00:48:15;;;;;;;8.02;6.22;;;;;;;16.02;60.22;100207.81;7685311;32;40096;-73
2022/05/06 00:52:31;;;;;;;9.60;5.82;;;;;;;15.88;61.09;100216.00;7683167;32;40547;-73
2022/05/06 00:56:49;;;;;;;13.38;5.87;;;;;;;16.14;59.18;100221.94;7683372;32;38750;-72
2022/05/06 01:01:06;;;;;;;6.80;4.93;;;;;;;16.22;57.20;100220.44;7677579;32;37196;-73
2022/05/06 01:05:23;;;;;;;8.93;5.00;;;;;;;16.51;55.97;100215.56;7685342;32;39617;-72
2022/05/06 01:09:39;;;;;;;7.95;5.00;;;;;;;16.69;54.95;100230.41;7684467;32;39936;-73
2022/05/06 01:13:56;;;;;;;9.48;5.00;;;;;;;16.46;55.23;100223.91;7682753;32;37981;-73
2022/05/06 01:18:12;;;;;;;10.23;4.80;;;;;;;16.70;54.43;100225.72;7677863;32;37032;-72
2022/05/06 01:22:28;;;;;;;6.62;4.60;;;;;;;16.51;55.04;100226.56;7685102;32;40022;-71
2022/05/06 01:27:07;;;;;;;7.95;5.30;;;;;;;16.43;55.37;100238.25;7682479;32;40734;-71
2022/05/06 01:31:24;;;;;;;7.05;4.37;;;;;;;16.51;54.79;100237.56;7680078;32;38077;-73
2022/05/06 01:35:55;;;;;;;8.13;4.40;;;;;;;16.62;54.33;100235.47;7680104;32;37331;-72
2022/05/06 01:40:13;;;;;;;8.18;4.57;;;;;;;16.44;54.27;100228.09;7684775;32;40098;-73
2022/05/06 01:44:41;;;;;;;6.62;4.07;;;;;;;16.35;54.49;100227.94;7683638;32;40045;-73
2022/05/06 01:48:58;;;;;;;10.70;4.70;;;;;;;16.33;54.75;100210.91;7676874;32;37671;-73
2022/05/06 01:53:16;;;;;;;5.97;3.87;;;;;;;16.22;54.91;100220.44;7681744;32;37968;-73
2022/05/06 01:57:32;;;;;;;9.88;4.70;;;;;;;16.32;54.51;100220.28;7684290;32;39271;-72
2022/05/06 02:01:48;;;;;;;6.15;4.00;;;;;;;16.18;55.69;100234.00;7680361;32;39996;-73
2022/05/06 02:06:05;;;;;;;9.65;4.43;;;;;;;16.31;55.25;100240.66;7676435;32;38079;-72
2022/05/06 02:10:23;;;;;;;7.40;3.90;;;;;;;16.40;54.13;100240.78;7682964;32;37353;-72
2022/05/06 02:14:39;;;;;;;5.30;3.87;;;;;;;16.69;53.35;100235.06;7683809;32;38388;-72
2022/05/06 02:18:56;;;;;;;6.60;4.37;;;;;;;16.88;52.74;100226.78;7684297;32;40422;-72
2022/05/06 02:23:12;;;;;;;6.82;4.10;;;;;;;16.70;52.97;100221.00;7675762;32;38742;-72
2022/05/06 02:27:28;;;;;;;5.85;4.15;;;;;;;16.64;53.26;100216.72;7682991;32;36997;-72
2022/05/06 02:36:19;;;;;;;7.40;4.37;;;;;;;16.74;53.09;100210.22;7668042;32;39967;-72
2022/05/06 02:40:36;;;;;;;6.85;3.87;;;;;;;16.56;53.17;100211.06;7673671;32;38455;-72
2022/05/06 02:44:52;;;;;;;6.35;3.97;;;;;;;16.54;53.05;100225.16;7683837;32;37844;-72
2022/05/06 02:49:08;;;;;;;6.97;3.55;;;;;;;16.20;54.78;100229.00;7683051;32;40043;-72
2022/05/06 02:53:24;;;;;;;7.55;4.30;;;;;;;16.38;54.05;100205.31;7683349;32;40717;-71
2022/05/06 02:57:40;;;;;;;6.25;4.40;;;;;;;16.19;54.68;100212.78;7673381;32;37957;-72
2022/05/06 03:01:57;;;;;;;7.40;4.12;;;;;;;16.05;55.67;100215.47;7683332;32;37968;-72
2022/05/06 03:06:13;;;;;;;7.80;4.30;;;;;;;16.28;54.90;100214.56;7682665;32;39406;-73
2022/05/06 03:10:29;;;;;;;5.93;4.10;;;;;;;16.23;54.30;100211.91;7683177;32;40168;-72
2022/05/06 03:14:45;;;;;;;7.20;4.57;;;;;;;16.57;52.67;100220.97;7674823;32;38786;-72
2022/05/06 03:19:01;;;;;;;6.30;4.25;;;;;;;16.50;52.75;100222.16;7686369;32;37049;-72
2022/05/06 03:23:17;;;;;;;7.12;3.90;;;;;;;16.70;52.20;100226.50;7685779;32;40004;-71
2022/05/06 03:32:08;;;;;;;5.35;3.80;;;;;;;16.71;52.04;100233.66;7676268;32;38012;-72
2022/05/06 03:36:25;;;;;;;6.60;4.37;;;;;;;16.72;51.98;100237.22;7686298;32;37262;-73
2022/05/06 03:40:41;;;;;;;6.78;4.05;;;;;;;16.79;51.63;100239.59;7685200;32;40113;-73
2022/05/06 03:44:57;;;;;;;6.90;4.00;;;;;;;16.71;52.03;100235.59;7686139;32;40244;-73
2022/05/06 03:49:13;;;;;;;5.00;3.58;;;;;;;16.71;51.70;100243.84;7676094;32;37914;-72
2022/05/06 03:53:29;;;;;;;6.80;4.15;;;;;;;16.82;51.19;100250.00;7686090;32;38311;-72
2022/05/06 03:57:45;;;;;;;6.53;3.85;;;;;;;16.69;52.10;100257.09;7685360;32;39283;-72
2022/05/06 04:02:01;;;;;;;5.30;3.70;;;;;;;16.59;52.02;100251.75;7685868;32;40754;-72
2022/05/06 04:06:17;;;;;;;7.45;3.72;;;;;;;16.78;51.98;100248.97;7675898;32;38502;-72
2022/05/06 04:10:33;;;;;;;7.62;3.92;;;;;;;16.70;52.15;100258.75;7672405;32;36721;-72
2022/05/06 04:14:50;;;;;;;5.82;4.00;;;;;;;16.24;53.63;100275.97;7664829;32;39114;-73
2022/05/06 04:19:06;;;;;;;11.20;3.87;;;;;;;16.14;53.75;100269.53;7685396;32;40752;-71
2022/05/06 04:23:32;;;;;;;5.43;3.67;;;;;;;16.34;53.36;100273.06;7675458;32;37904;-71
2022/05/06 04:27:48;;;;;;;6.68;3.55;;;;;;;16.31;53.66;100279.16;7686137;32;37375;-72
2022/05/06 04:32:05;;;;;;;6.32;3.95;;;;;;;15.74;55.05;100288.16;7684917;32;40003;-72
2022/05/06 04:36:21;;;;;;;8.07;3.95;;;;;;;16.33;53.98;100282.44;7685577;32;40992;-72
2022/05/06 04:40:37;;;;;;;8.75;3.95;;;;;;;16.40;54.35;100282.91;7675404;32;38103;-72
2022/05/06 04:44:53;;;;;;;5.93;3.55;;;;;;;16.41;54.22;100292.78;7685553;32;36976;-72
2022/05/06 04:49:10;;;;;;;5.95;3.45;;;;;;;16.36;54.03;100290.09;7684792;32;40322;-72
2022/05/06 04:53:26;;;;;;;6.85;3.80;;;;;;;16.39;55.07;100297.75;7685364;32;40071;-73
2022/05/06 04:57:42;;;;;;;10.52;4.12;;;;;;;16.37;54.94;100294.50;7675328;32;38011;-73
2022/05/06 05:01:58;;;;;;;7.60;3.60;;;;;;;16.31;55.82;100296.47;7685233;32;37227;-72
2022/05/06 05:06:14;;;;;;;10.27;3.40;;;;;;;16.59;54.45;100301.31;7684539;32;40215;-73
2022/05/06 05:10:30;;;;;;;6.60;4.10;;;;;;;16.49;54.62;100289.34;7685120;32;40053;-73
2022/05/06 05:14:46;;;;;;;10.32;3.78;;;;;;;16.50;54.83;100301.97;7675102;32;38149;-72
2022/05/06 05:19:02;;;;;;;4.65;3.15;;;;;;;16.61;54.49;100301.81;7685099;32;37070;-73
2022/05/06 05:23:18;;;;;;;8.27;3.83;;;;;;;16.73;54.97;100299.44;7684368;32;39289;-73
2022/05/06 05:27:36;;;;;;;5.57;3.62;;;;;;;16.78;54.47;100287.50;7685091;32;39876;-73
2022/05/06 05:31:53;;;;;;;7.10;3.80;;;;;;;16.95;53.68;100309.00;7674933;32;37749;-73
2022/05/06 05:36:09;;;;;;;5.22;3.28;;;;;;;17.02;53.34;100303.91;7684047;32;37115;-72
2022/05/06 05:40:25;;;;;;;5.70;3.35;;;;;;;17.26;52.95;100301.84;7683977;32;39356;-72
2022/05/06 05:49:16;;;;;;;6.15;3.40;;;;;;;17.59;51.67;100310.03;7674706;32;38857;-72
2022/05/06 05:53:32;;;;;;;8.75;3.80;;;;;;;17.59;52.03;100312.78;7684798;32;38087;-73
2022/05/06 05:57:48;;;;;;;5.80;3.40;;;;;;;17.72;50.78;100305.63;7682460;32;39318;-72
2022/05/06 06:02:04;;;;;;;4.85;3.28;;;;;;;17.92;50.97;100303.59;7658241;32;39961;-73
2022/05/06 06:06:21;;;;;;;5.85;3.30;;;;;;;17.74;51.23;100308.06;7660539;32;38210;-72
2022/05/06 06:10:38;;;;;;;8.18;3.67;;;;;;;17.93;51.66;100300.53;7684489;32;37843;-73
2022/05/06 06:14:56;;;;;;;5.25;3.65;;;;;;;17.91;50.71;100308.28;7684511;32;39471;-73
2022/05/06 06:19:12;;;;;;;5.10;3.30;;;;;;;17.97;50.90;100307.06;7662941;32;39889;-77
2022/05/06 06:23:31;;;;;;;4.82;3.65;;;;;;;17.80;53.34;100312.38;7657723;32;37929;-75
2022/05/06 06:27:47;;;;;;;6.87;3.87;;;;;;;18.10;52.73;100326.66;7656947;32;37858;-80
2022/05/06 06:32:03;;;;;;;6.03;3.22;;;;;;;18.36;51.85;100324.94;7657849;32;40109;-71
2022/05/06 06:36:19;;;;;;;7.43;3.28;;;;;;;18.50;49.80;100311.09;7666495;32;39638;-70
2022/05/06 06:40:35;;;;;;;6.12;3.40;;;;;;;18.18;50.72;100301.91;7657302;32;38467;-71
2022/05/06 06:44:52;;;;;;;7.85;3.30;;;;;;;18.77;49.33;100296.38;7663601;32;37126;-72
2022/05/06 06:49:08;;;;;;;8.65;4.10;;;;;;;18.64;48.74;100308.28;7663190;32;40265;-71
2022/05/06 06:53:24;;;;;;;5.80;3.67;;;;;;;18.61;48.67;100308.94;7683558;32;38936;-71
2022/05/06 06:57:40;;;;;;;4.70;3.42;;;;;;;18.68;49.19;100320.38;7674879;32;38028;-71
2022/05/06 07:01:56;;;;;;;6.65;3.42;;;;;;;19.08;48.32;100312.19;7680829;32;37237;-71
2022/05/06 07:15:32;;;;;;;8.07;3.85;;;;;;;19.43;46.53;100311.56;7661348;32;38085;-73
2022/05/06 07:19:49;;;;;;;10.50;3.90;;;;;;;19.56;46.67;100315.34;7671333;32;37285;-71
2022/05/06 07:24:06;;;;;;;9.27;3.87;;;;;;;19.58;47.23;100310.34;7680430;32;40285;-73
2022/05/06 07:28:22;;;;;;;7.60;4.12;;;;;;;20.03;45.96;100299.88;7682767;32;40049;-73
2022/05/06 07:32:38;;;;;;;6.50;3.90;;;;;;;20.03;47.33;100296.31;7682666;32;38065;-74
2022/05/06 07:36:54;;;;;;;8.43;4.18;;;;;;;20.03;46.30;100302.66;7682644;32;37896;-74
2022/05/06 07:41:10;;;;;;;9.98;4.00;;;;;;;20.35;45.39;100316.38;7662027;32;40064;-74
2022/05/06 07:45:26;;;;;;;7.45;3.97;;;;;;;20.55;45.78;100312.94;7655864;32;39938;-72
2022/05/06 07:49:43;;;;;;;8.07;4.25;;;;;;;20.69;44.04;100307.28;7656408;32;38088;-73
2022/05/06 07:53:59;;;;;;;6.20;3.85;;;;;;;20.75;44.85;100310.72;7682250;32;37127;-73
2022/05/06 07:58:15;;;;;;;7.82;4.28;;;;;;;20.59;44.02;100316.72;7682084;32;39369;-72
2022/05/06 08:07:07;;;;;;;7.47;4.43;;;;;;;20.61;45.17;100297.81;7659553;32;38030;-74
2022/05/06 08:11:23;;;;;;;8.65;4.40;;;;;;;20.29;45.17;100315.72;7659512;32;37069;-72
2022/05/06 08:15:39;;;;;;;6.37;4.65;;;;;;;20.89;44.22;100322.41;7659364;32;39439;-73
2022/05/06 08:19:55;;;;;;;7.62;4.78;;;;;;;20.85;44.51;100315.88;7659459;32;39655;-74
2022/05/06 08:24:12;;;;;;;8.95;4.57;;;;;;;21.27;44.39;100320.88;7662818;32;38546;-73
2022/05/06 08:28:29;;;;;;;10.52;5.35;;;;;;;21.23;44.19;100319.88;7685732;32;37176;-73
2022/05/06 08:32:45;;;;;;;8.05;4.37;;;;;;;21.48;43.24;100320.97;7685588;32;39904;-74
2022/05/06 08:37:03;;;;;;;9.65;5.07;;;;;;;21.66;43.35;100319.75;7685516;32;40530;-73
2022/05/06 08:41:19;;;;;;;9.48;5.03;;;;;;;21.68;43.07;100317.47;7677873;32;232520;-74
2022/05/06 08:54:46;;;;;;;10.82;4.32;;;;;;;21.84;41.96;100328.00;7676323;32;40755;-73
2022/05/06 08:59:02;;;;;;;9.93;4.40;;;;;;;21.94;43.70;100328.41;7658849;32;37958;-72
2022/05/06 09:03:18;;;;;;;10.02;4.57;;;;;;;22.24;43.89;100330.34;7658848;32;37097;-73
2022/05/06 09:07:35;;;;;;;10.07;4.30;;;;;;;22.57;41.99;100324.09;7670705;32;39406;-72
2022/05/06 09:16:44;;;;;;;10.52;4.62;;;;;;;22.44;43.12;100318.47;7679452;32;38980;-73
2022/05/06 09:21:11;;;;;;;7.03;3.90;;;;;;;22.07;42.89;100320.16;7658634;32;37151;-74
2022/05/06 09:25:37;;;;;;;7.20;4.60;;;;;;;22.15;42.70;100324.06;7658531;32;40084;-73
2022/05/06 09:29:54;;;;;;;8.52;4.25;;;;;;;22.18;41.27;100315.03;7658481;32;40570;-72
2022/05/06 09:34:11;;;;;;;7.95;4.47;;;;;;;22.37;41.92;100318.22;7667156;32;38816;-73
2022/05/06 09:38:29;;;;;;;8.07;4.00;;;;;;;22.66;42.21;100322.88;7684926;32;37272;-73
2022/05/06 09:42:59;;;;;;;7.05;4.45;;;;;;;22.58;40.76;100322.94;7684711;32;39496;-73
2022/05/06 09:47:20;;;;;;;8.13;4.45;;;;;;;22.81;41.96;100326.97;7672356;32;40436;-72
2022/05/06 09:51:36;;;;;;;9.45;4.28;;;;;;;22.84;41.06;100319.91;7675274;32;37975;-71
2022/05/06 09:55:53;;;;;;;9.45;4.28;;;;;;;22.66;40.24;100311.75;7659123;32;37800;-74
2022/05/06 10:00:15;;;;;;;6.28;4.12;;;;;;;22.96;42.71;100305.25;7661666;32;39416;-74
2022/05/06 10:04:31;;;;;;;7.55;4.62;;;;;;;22.67;41.25;100310.56;7658154;32;39666;-74
2022/05/06 10:08:51;;;;;;;7.53;3.97;;;;;;;22.47;41.56;100306.69;7657933;32;38033;-74
2022/05/06 10:13:14;;;;;;;6.25;3.87;;;;;;;23.23;40.98;100309.38;7658064;32;38086;-73
2022/05/06 10:17:51;;;;;;;6.55;4.10;;;;;;;23.02;42.11;100303.88;7683128;32;40110;-73
2022/05/06 10:22:08;;;;;;;9.40;4.03;;;;;;;22.82;41.10;100311.91;7683627;32;40896;-73
2022/05/06 10:26:37;;;;;;;6.12;3.78;;;;;;;23.24;40.41;100294.34;7682162;32;38764;-74
2022/05/06 10:35:39;;;;;;;7.28;4.18;;;;;;;23.42;40.87;100295.75;7684110;32;39353;-73
2022/05/06 10:39:56;;;;;;;10.98;4.35;;;;;;;23.97;39.37;100288.00;7683830;32;39023;-74
2022/05/06 10:44:44;;;;;;;10.35;3.90;;;;;;;23.85;39.37;100284.41;7682348;32;37863;-73
2022/05/06 10:49:34;;;;;;;7.82;4.25;;;;;;;24.25;38.46;100287.25;7683665;32;37007;-74
2022/05/06 10:53:51;;;;;;;7.85;3.90;;;;;;;23.78;39.46;100285.78;7683531;32;39291;-74
2022/05/06 10:58:08;;;;;;;8.10;4.22;;;;;;;24.16;38.59;100275.41;7683537;32;40030;-74
2022/05/06 11:02:28;;;;;;;6.82;3.90;;;;;;;24.37;38.94;100269.69;7683263;32;37938;-75
2022/05/06 11:06:45;;;;;;;6.07;3.97;;;;;;;24.61;38.85;100266.00;7683341;32;37867;-75
2022/05/06 11:11:01;;;;;;;9.07;4.50;;;;;;;24.97;38.25;100255.00;7683456;32;39342;-73
2022/05/06 11:15:23;;;;;;;7.15;4.60;;;;;;;25.12;37.78;100257.81;7683097;32;41265;-74
2022/05/06 11:19:40;;;;;;;9.90;3.62;;;;;;;25.21;36.39;100262.41;7679792;32;37068;-74
2022/05/06 11:23:56;;;;;;;8.13;4.47;;;;;;;24.92;36.49;100258.84;7669489;32;37152;-74
2022/05/06 11:28:20;;;;;;;6.95;4.30;;;;;;;25.00;36.99;100252.31;7655324;32;40242;-75
2022/05/06 11:32:37;;;;;;;7.80;4.47;;;;;;;24.91;37.42;100252.47;7656344;32;39870;-74
2022/05/06 11:36:53;;;;;;;8.75;4.30;;;;;;;24.60;38.71;100244.88;7658955;32;38128;-75
2022/05/06 11:41:13;;;;;;;12.70;4.87;;;;;;;24.94;38.83;100245.38;7681685;32;37336;-79
2022/05/06 11:50:04;;;;;;;6.65;4.28;;;;;;;24.84;39.50;100245.91;7686090;32;40137;-78
2022/05/06 11:54:20;;;;;;;11.38;5.20;;;;;;;24.98;38.35;100235.12;7685904;32;37965;-74
2022/05/06 11:58:38;;;;;;;8.82;5.00;;;;;;;24.58;38.20;100238.84;7686116;32;37208;-74
2022/05/06 12:02:54;;;;;;;8.77;4.07;;;;;;;24.78;37.84;100241.75;7685814;32;40107;-74
2022/05/06 12:07:10;;;;;;;9.52;4.62;;;;;;;25.05;38.93;100232.53;7685911;32;39972;-76
2022/05/06 12:11:26;;;;;;;8.48;4.80;;;;;;;24.82;38.19;100234.28;7685798;32;38691;-74
2022/05/06 12:15:47;;;;;;;10.10;4.30;;;;;;;24.49;40.07;100238.16;7685729;32;37052;-74
2022/05/06 12:20:04;;;;;;;7.93;4.40;;;;;;;24.86;39.01;100232.41;7685626;32;40222;-74
2022/05/06 12:24:36;;;;;;;7.65;4.47;;;;;;;24.97;38.30;100233.50;7685537;32;40898;-74
2022/05/06 12:28:53;;;;;;;7.53;4.10;;;;;;;24.69;39.30;100222.41;7685700;32;38830;-74
2022/05/06 12:33:13;;;;;;;8.15;4.87;;;;;;;25.11;38.83;100221.88;7685605;32;37182;-74
2022/05/06 12:37:29;;;;;;;6.00;4.53;;;;;;;25.34;38.30;100222.12;7685718;32;39070;-74
2022/05/06 12:41:46;;;;;;;8.88;4.22;;;;;;;25.52;37.12;100218.94;7683932;32;39880;-75
2022/05/06 12:46:02;;;;;;;9.25;4.07;;;;;;;25.05;37.48;100224.16;7684665;32;37981;-75
2022/05/06 12:50:19;;;;;;;6.95;4.10;;;;;;;25.19;36.79;100226.50;7685299;32;37893;-74
2022/05/06 12:54:36;;;;;;;9.77;3.97;;;;;;;25.05;37.34;100217.78;7684089;32;39446;-75
2022/05/06 12:58:52;;;;;;;8.02;4.07;;;;;;;25.10;36.92;100214.72;7685203;32;40707;-75
2022/05/06 13:03:09;;;;;;;6.70;4.15;;;;;;;24.95;36.91;100205.16;7684738;32;38731;-74
2022/05/06 13:07:27;;;;;;;13.95;3.97;;;;;;;25.12;36.58;100207.59;7684987;32;37269;-75
2022/05/06 13:11:47;;;;;;;7.05;3.87;;;;;;;25.45;36.70;100208.41;7685168;32;38997;-74
2022/05/06 13:16:04;;;;;;;7.12;4.35;;;;;;;25.08;37.42;100203.91;7685122;32;39759;-75
2022/05/06 13:20:20;;;;;;;5.80;3.90;;;;;;;25.07;37.02;100205.06;7684991;32;38849;-75
2022/05/06 13:24:36;;;;;;;8.57;4.60;;;;;;;25.26;37.19;100201.59;7684898;32;37091;-75
2022/05/06 13:28:52;;;;;;;7.18;3.80;;;;;;;25.39;36.19;100202.31;7684860;32;39299;-74
2022/05/06 13:33:09;;;;;;;10.93;4.18;;;;;;;24.78;37.57;100202.72;7684635;32;40956;-75
2022/05/06 13:37:25;;;;;;;6.62;3.65;;;;;;;25.32;35.20;100199.34;7684813;32;38121;-74
2022/05/06 13:41:41;;;;;;;11.27;4.15;;;;;;;25.52;37.10;100196.59;7684587;32;37118;-75
2022/05/06 13:45:57;;;;;;;7.53;4.50;;;;;;;25.75;35.71;100194.75;7679954;32;40093;-75
2022/05/06 13:50:13;;;;;;;6.10;3.80;;;;;;;25.41;35.58;100190.78;7684309;32;39963;-75
2022/05/06 13:54:29;;;;;;;6.40;4.00;;;;;;;25.48;35.87;100190.94;7684029;32;37710;-80
2022/05/06 13:59:04;;;;;;;5.93;4.03;;;;;;;26.14;34.52;100180.81;7682682;32;36794;-74
2022/05/06 14:03:23;;;;;;;7.43;4.10;;;;;;;25.86;34.61;100190.19;7684547;32;39343;-75
2022/05/06 14:07:40;;;;;;;6.82;4.18;;;;;;;25.68;35.70;100183.41;7683828;32;39608;-75
2022/05/06 14:11:56;;;;;;;7.25;4.20;;;;;;;26.02;34.58;100181.78;7684364;32;38799;-75
2022/05/06 14:16:18;;;;;;;9.43;4.27;;;;;;;25.51;35.43;100178.22;7683598;32;37906;-75
2022/05/06 14:20:34;;;;;;;6.20;4.03;;;;;;;25.44;35.72;100185.28;7684337;32;40127;-75
2022/05/06 14:24:50;;;;;;;8.02;4.25;;;;;;;25.56;35.64;100170.41;7683650;32;39810;-75
2022/05/06 14:29:06;;;;;;;5.37;3.83;;;;;;;25.77;34.72;100175.66;7682159;32;38679;-75
2022/05/06 14:33:22;;;;;;;7.75;4.03;;;;;;;25.94;36.21;100162.41;7684132;32;37273;-74
2022/05/06 14:37:38;;;;;;;8.80;4.53;;;;;;;26.33;34.02;100165.22;7683129;32;40058;-75
2022/05/06 14:41:54;;;;;;;8.25;4.28;;;;;;;26.27;34.55;100163.91;7683419;32;40694;-74
2022/05/06 14:46:11;;;;;;;6.95;4.00;;;;;;;26.34;34.19;100164.06;7681646;32;38857;-75
2022/05/06 14:50:27;;;;;;;10.35;5.97;;;;;;;25.67;35.51;100159.47;7683439;32;38189;-74
2022/05/06 14:54:43;;;;;;;7.15;4.37;;;;;;;25.84;34.58;100149.84;7683458;32;40104;-75
2022/05/06 14:58:59;;;;;;;10.88;4.47;;;;;;;25.58;35.07;100153.28;7682923;32;39572;-75
2022/05/06 15:03:15;;;;;;;7.20;4.10;;;;;;;25.72;35.02;100148.00;7683321;32;38495;-75
2022/05/06 15:07:31;;;;;;;9.35;4.43;;;;;;;25.83;34.75;100146.25;7682578;32;36850;-75
2022/05/06 15:11:48;;;;;;;9.15;4.35;;;;;;;25.91;35.97;100146.41;7686428;32;39092;-75
2022/05/06 15:16:06;;;;;;;7.40;4.35;;;;;;;25.66;36.31;100152.25;7685933;32;40743;-74
2022/05/06 15:20:22;;;;;;;14.63;4.22;;;;;;;25.51;35.85;100150.31;7685672;32;38898;-75
2022/05/06 15:24:39;;;;;;;11.10;4.50;;;;;;;25.06;37.49;100147.69;7686131;32;37135;-75
2022/05/06 15:28:55;;;;;;;6.10;4.22;;;;;;;25.24;36.79;100145.31;7685621;32;39365;-75
2022/05/06 15:33:11;;;;;;;9.95;4.45;;;;;;;24.75;36.65;100137.34;7685049;32;40236;-75
2022/05/06 15:37:27;;;;;;;10.80;4.57;;;;;;;24.76;36.80;100138.16;7685173;32;38825;-74
2022/05/06 15:41:43;;;;;;;6.57;4.12;;;;;;;24.76;37.00;100135.37;7685601;32;37994;-74
2022/05/06 15:45:59;;;;;;;9.13;4.55;;;;;;;24.90;36.56;100133.72;7685514;32;39533;-73
2022/05/06 15:50:15;;;;;;;7.05;4.05;;;;;;;24.52;37.23;100137.12;7685045;32;41263;-74
2022/05/06 15:54:31;;;;;;;6.93;4.30;;;;;;;24.24;38.28;100134.38;7685889;32;37932;-73
2022/05/06 15:58:47;;;;;;;9.43;4.85;;;;;;;24.23;37.27;100132.75;7685996;32;37006;-74
2022/05/06 16:03:03;;;;;;;9.13;5.18;;;;;;;24.29;37.98;100128.56;7685906;32;39044;-73
2022/05/06 16:07:20;;;;;;;9.98;5.03;;;;;;;24.15;37.63;100128.97;7686037;32;39862;-73
2022/05/06 16:11:36;;;;;;;10.18;5.70;;;;;;;23.99;38.73;100135.31;7685754;32;38552;-75
2022/05/06 16:15:54;;;;;;;9.35;4.62;;;;;;;23.86;38.37;100130.94;7685812;32;37910;-74
2022/05/06 16:20:11;;;;;;;10.27;4.57;;;;;;;23.84;38.84;100135.25;7685218;32;39456;-74
2022/05/06 16:24:28;;;;;;;9.43;4.57;;;;;;;23.78;38.49;100134.63;7685543;32;40772;-74
2022/05/06 16:28:44;;;;;;;12.30;4.12;;;;;;;23.54;39.51;100135.50;7685617;32;38783;-75
2022/05/06 16:33:01;;;;;;;10.00;4.70;;;;;;;23.59;39.31;100136.09;7685477;32;36972;-74
2022/05/06 16:37:20;;;;;;;6.70;4.20;;;;;;;23.58;39.47;100126.13;7685493;32;39901;-74
2022/05/06 16:41:37;;;;;;;7.87;4.30;;;;;;;23.58;39.14;100136.44;7685226;32;40039;-74
2022/05/06 16:45:53;;;;;;;5.85;3.97;;;;;;;23.49;39.34;100142.16;7685485;32;38094;-74
2022/05/06 16:50:12;;;;;;;9.05;4.32;;;;;;;23.45;39.21;100132.88;7685469;32;37165;-74
2022/05/06 16:54:28;;;;;;;8.52;4.47;;;;;;;23.30;40.00;100144.72;7685519;32;40194;-74
2022/05/06 16:58:44;;;;;;;13.48;6.90;;;;;;;23.21;39.80;100139.28;7685176;32;39938;-74
2022/05/06 17:03:00;;;;;;;6.70;3.90;;;;;;;23.15;39.89;100130.38;7685171;32;37964;-74
2022/05/06 17:07:17;;;;;;;6.75;3.95;;;;;;;23.15;39.71;100144.28;7685259;32;37055;-74
2022/05/06 17:11:33;;;;;;;7.12;4.37;;;;;;;23.02;40.29;100142.59;7685253;32;40239;-74
2022/05/06 17:15:49;;;;;;;5.82;4.10;;;;;;;22.81;40.92;100142.72;7685183;32;39989;-75
2022/05/06 17:20:09;;;;;;;7.25;4.53;;;;;;;22.69;40.73;100146.28;7684986;32;38142;-73
2022/05/06 17:24:26;;;;;;;10.55;4.25;;;;;;;22.80;40.99;100147.47;7684971;32;37245;-74
2022/05/06 17:28:42;;;;;;;11.10;4.50;;;;;;;22.66;42.08;100145.03;7685056;32;39948;-73
2022/05/06 17:32:58;;;;;;;8.35;4.62;;;;;;;22.65;41.16;100139.81;7683768;32;39912;-72
2022/05/06 17:37:14;;;;;;;10.95;6.22;;;;;;;22.40;42.08;100147.28;7684871;32;38048;-74
2022/05/06 17:41:31;;;;;;;8.02;5.05;;;;;;;22.33;42.78;100150.59;7684537;32;37885;-75
2022/05/06 17:45:47;;;;;;;8.80;4.37;;;;;;;22.10;43.02;100153.72;7684458;32;40167;-75
2022/05/06 17:50:04;;;;;;;7.10;4.28;;;;;;;21.99;43.60;100151.72;7680571;32;41140;-76
2022/05/06 17:54:20;;;;;;;6.97;4.50;;;;;;;21.88;44.02;100152.13;7667040;32;37994;-76
2022/05/06 17:58:36;;;;;;;11.85;5.28;;;;;;;21.60;44.50;100157.41;7657988;32;37268;-75
2022/05/06 18:02:53;;;;;;;12.55;5.47;;;;;;;21.42;45.05;100162.25;7681670;32;39397;-74
2022/05/06 18:07:10;;;;;;;8.35;5.03;;;;;;;21.54;44.63;100164.28;7684391;32;40844;-75
2022/05/06 18:11:28;;;;;;;9.77;5.45;;;;;;;21.19;45.74;100178.34;7682772;32;38658;-75
2022/05/06 18:15:44;;;;;;;10.20;5.40;;;;;;;21.13;45.91;100171.38;7670992;32;37102;-76
2022/05/06 18:20:00;;;;;;;8.90;5.20;;;;;;;20.79;47.06;100171.16;7666511;32;40131;-75
2022/05/06 18:24:16;;;;;;;8.85;5.10;;;;;;;20.62;47.54;100180.34;7657335;32;40818;-75
2022/05/06 18:28:33;;;;;;;6.12;4.50;;;;;;;20.39;48.10;100188.03;7657501;32;38029;-75
2022/05/06 18:37:26;;;;;;;7.90;4.85;;;;;;;20.06;49.30;100196.06;7657543;32;39913;-75
2022/05/06 18:41:42;;;;;;;8.02;5.18;;;;;;;20.19;48.87;100200.59;7657220;32;40306;-75
2022/05/06 18:45:58;;;;;;;11.43;4.72;;;;;;;20.00;49.48;100209.22;7656939;32;38182;-74
2022/05/06 18:50:16;;;;;;;9.82;4.78;;;;;;;19.83;49.82;100212.81;7657467;32;37274;-73
2022/05/06 18:54:32;;;;;;;7.65;4.80;;;;;;;19.51;50.68;100211.25;7657242;32;40159;-74
2022/05/06 18:58:48;;;;;;;8.57;4.90;;;;;;;19.59;49.98;100216.00;7656978;32;40739;-74
2022/05/06 19:03:06;;;;;;;8.43;5.05;;;;;;;19.62;49.50;100220.03;7656757;32;38767;-74
2022/05/06 19:07:23;;;;;;;7.55;5.05;;;;;;;19.63;49.50;100218.91;7659527;32;36451;-73
2022/05/06 19:11:47;;;;;;;;;;;;;;;19.53;50.20;100214.50;7683439;32;39382;-73
2022/05/06 19:16:04;;;;;;;11.18;4.50;;;;;;;19.74;49.70;100223.03;7681879;32;38882;-73
2022/05/06 19:20:21;;;;;;;10.55;5.32;;;;;;;19.38;50.65;100232.34;7688347;32;36683;-74
2022/05/06 19:24:43;;;;;;;9.13;4.87;;;;;;;19.44;50.52;100227.50;7698167;32;37166;-74
2022/05/06 19:28:59;;;;;;;9.05;5.37;;;;;;;19.38;50.65;100232.34;7709267;32;39459;-74
2022/05/06 19:33:19;;;;;;;7.40;4.72;;;;;;;19.45;50.51;100226.34;7656133;32;38412;-74
2022/05/06 19:37:42;;;;;;;6.97;5.00;;;;;;;19.44;50.63;100225.53;7654912;32;37937;-74
2022/05/06 19:41:58;;;;;;;6.95;4.80;;;;;;;19.20;51.50;100236.19;7654164;32;36947;-74
2022/05/06 19:46:14;;;;;;;7.60;5.25;;;;;;;19.34;50.98;100236.87;7655053;32;40153;-74
2022/05/06 19:50:30;;;;;;;7.37;4.87;;;;;;;19.03;52.03;100243.25;7655549;32;40048;-74
2022/05/06 19:54:46;;;;;;;11.30;5.25;;;;;;;19.28;50.93;100240.91;7668212;32;38724;-74
2022/05/06 19:59:03;;;;;;;9.50;5.03;;;;;;;19.20;50.99;100241.72;7671057;32;35914;-74
2022/05/06 20:03:19;;;;;;;9.43;5.45;;;;;;;19.00;51.74;100245.84;7671398;32;40499;-74
2022/05/06 20:07:35;;;;;;;10.70;4.90;;;;;;;18.97;51.96;100236.22;7671609;32;39646;-74
2022/05/06 20:11:51;;;;;;;8.48;5.53;;;;;;;18.76;52.82;100233.16;7671960;32;38576;-74
2022/05/06 20:16:08;;;;;;;9.90;5.28;;;;;;;18.72;52.50;100243.22;7681970;32;37113;-73
2022/05/06 20:20:24;;;;;;;7.95;4.78;;;;;;;18.72;52.55;100240.47;7671328;32;39442;-74
2022/05/06 20:24:42;;;;;;;8.32;5.18;;;;;;;18.85;52.06;100242.38;7671237;32;40042;-73
2022/05/06 20:28:59;;;;;;;9.50;4.82;;;;;;;18.79;52.43;100240.00;7671792;32;38043;-74
2022/05/06 20:33:15;;;;;;;6.72;4.75;;;;;;;18.91;52.06;100245.81;7670787;32;37229;-74
2022/05/06 20:37:37;;;;;;;9.85;5.28;;;;;;;18.74;52.57;100239.00;7670214;32;39397;-73
2022/05/06 20:41:53;;;;;;;8.10;6.00;;;;;;;18.60;53.27;100241.03;7670013;32;40945;-73
2022/05/06 20:46:09;;;;;;;7.55;4.90;;;;;;;18.43;53.63;100238.16;7670440;32;38564;-74
2022/05/06 20:50:25;;;;;;;13.13;5.82;;;;;;;18.22;54.62;100238.62;7674470;32;36759;-73